Time;durP1;ratioP1;P1;durP2;ratioP2;P2;SDS_P1;SDS_P2;PMS_P1;PMS_P2;Temp;Humidity;BMP_temperature;BMP_pressure;BME280_temperature;BME280_humidity;BME280_pressure;Samples;Min_cycle;Max_cycle;Signal;HPM_P1;HPM_P2
2021/04/23 00:02:35;;;;;;;8.85;4.43;;;;;;;6.55;62.15;101324.47;5059903;28;20090;-70
2021/04/23 00:05:18;;;;;;;11.82;4.10;;;;;;;6.51;63.10;101328.28;5059760;28;20055;-70
2021/04/23 00:08:03;;;;;;;6.15;3.47;;;;;;;6.43;64.16;101335.81;5074386;28;20082;-70
2021/04/23 00:10:47;;;;;;;;;;;;;;;6.34;64.67;101335.53;5060087;28;20098;-70
2021/04/23 00:13:32;;;;;;;14.68;4.15;;;;;;;6.23;65.33;101332.66;5059873;28;19923;-70
2021/04/23 00:16:16;;;;;;;;;;;;;;;6.18;66.47;101334.72;5074384;28;20117;-70
2021/04/23 00:19:01;;;;;;;10.45;4.28;;;;;;;6.15;66.88;101338.41;5059898;28;19919;-70
2021/04/23 00:21:46;;;;;;;9.93;4.45;;;;;;;6.12;67.20;101338.59;5059785;28;20118;-70
2021/04/23 00:24:30;;;;;;;12.98;4.40;;;;;;;6.09;67.33;101330.84;5059422;28;20089;-70
2021/04/23 00:27:13;;;;;;;11.10;4.35;;;;;;;6.05;67.98;101334.59;5059172;28;20106;-70
2021/04/23 00:30:00;;;;;;;8.85;3.97;;;;;;;5.99;68.51;101337.63;5073371;28;20075;-71
2021/04/23 00:32:44;;;;;;;8.60;4.70;;;;;;;5.96;69.50;101324.53;5073549;28;20062;-70
2021/04/23 00:35:30;;;;;;;12.02;4.55;;;;;;;5.92;69.77;101328.31;5073304;28;20047;-70
2021/04/23 00:38:21;;;;;;;17.02;4.57;;;;;;;5.90;70.03;101332.84;5073240;28;20134;-71
2021/04/23 00:41:11;;;;;;;11.48;4.55;;;;;;;5.83;68.96;101334.16;5059576;28;20401;-70
2021/04/23 00:43:58;;;;;;;12.38;4.18;;;;;;;5.76;68.13;101335.41;5059305;28;20094;-70
2021/04/23 00:46:43;;;;;;;9.80;4.55;;;;;;;5.75;70.51;101340.78;5073132;28;20051;-70
2021/04/23 00:49:27;;;;;;;11.20;4.80;;;;;;;5.70;71.49;101334.91;5059281;28;20047;-70
2021/04/23 00:52:11;;;;;;;11.07;4.75;;;;;;;5.69;71.10;101339.34;5059077;28;20051;-70
2021/04/23 00:54:56;;;;;;;12.50;5.07;;;;;;;5.65;70.50;101335.16;5058953;28;20131;-70
2021/04/23 00:57:39;;;;;;;12.65;4.85;;;;;;;5.58;70.05;101328.53;5059299;28;20501;-70
2021/04/23 01:00:24;;;;;;;13.27;4.88;;;;;;;5.51;69.58;101337.75;5059063;28;20051;-70
2021/04/23 01:03:10;;;;;;;11.27;5.32;;;;;;;5.43;70.15;101333.84;5073261;28;20046;-70
2021/04/23 01:05:54;;;;;;;10.80;4.75;;;;;;;5.36;70.57;101338.59;5073133;28;20124;-70
2021/04/23 01:08:38;;;;;;;;;;;;;;;5.32;71.15;101333.59;5059355;28;20082;-70
2021/04/23 01:11:24;;;;;;;11.33;4.93;;;;;;;5.28;71.89;101332.03;5058432;28;19942;-70
2021/04/23 01:14:09;;;;;;;10.90;5.07;;;;;;;5.23;72.06;101331.47;5058635;28;20300;-70
2021/04/23 01:16:57;;;;;;;11.32;4.55;;;;;;;5.19;71.59;101330.78;5072768;28;20052;-71
2021/04/23 01:19:41;;;;;;;14.00;5.00;;;;;;;5.14;71.46;101331.97;5058360;28;20094;-70
2021/04/23 01:22:25;;;;;;;15.55;5.20;;;;;;;5.12;71.87;101334.69;5072818;28;20047;-70
2021/04/23 01:25:10;;;;;;;9.07;5.25;;;;;;;5.10;71.99;101327.75;5058535;28;20131;-70
2021/04/23 01:27:54;;;;;;;12.43;5.53;;;;;;;5.08;72.11;101329.66;5058524;28;20051;-70
2021/04/23 01:30:38;;;;;;;19.15;6.32;;;;;;;5.04;72.03;101326.31;5058802;28;20408;-70
2021/04/23 01:33:22;;;;;;;9.90;5.72;;;;;;;5.01;72.80;101326.50;5058850;28;20083;-70
2021/04/23 01:36:07;;;;;;;19.08;6.30;;;;;;;4.98;72.42;101326.66;5073259;28;20087;-70
2021/04/23 01:38:51;;;;;;;14.25;5.53;;;;;;;4.98;72.74;101334.59;5072769;28;20515;-70
2021/04/23 01:41:36;;;;;;;9.57;5.43;;;;;;;4.99;73.08;101344.22;5058279;28;20093;-71
2021/04/23 01:44:21;;;;;;;17.52;5.60;;;;;;;5.04;73.29;101352.75;5058515;28;20044;-71
2021/04/23 01:47:06;;;;;;;11.35;4.95;;;;;;;5.14;72.67;101348.66;5072562;28;20051;-70
2021/04/23 01:49:52;;;;;;;16.33;5.53;;;;;;;5.27;72.36;101354.13;5072485;28;20042;-70
2021/04/23 01:52:36;;;;;;;12.82;5.78;;;;;;;5.35;71.98;101351.91;5058181;28;20420;-70
2021/04/23 01:55:21;;;;;;;13.65;5.35;;;;;;;5.41;71.64;101356.84;5058020;28;20101;-70
2021/04/23 01:58:06;;;;;;;13.68;5.93;;;;;;;5.44;71.48;101359.34;5057864;28;20047;-70
2021/04/23 02:00:53;;;;;;;17.40;6.03;;;;;;;5.47;71.08;101367.09;5058100;28;20042;-70
2021/04/23 02:03:38;;;;;;;15.23;6.10;;;;;;;5.49;70.93;101363.44;5057980;28;20051;-69
2021/04/23 02:06:22;;;;;;;12.50;5.38;;;;;;;5.51;71.34;101369.50;5072224;28;20140;-70
2021/04/23 02:09:08;;;;;;;16.10;5.90;;;;;;;5.55;70.85;101372.81;5058130;28;20131;-71
2021/04/23 02:11:53;;;;;;;19.35;5.93;;;;;;;5.61;70.67;101375.09;5071939;28;20055;-70
2021/04/23 02:14:37;;;;;;;20.05;6.60;;;;;;;5.63;70.65;101376.72;5072267;28;20151;-71
2021/04/23 02:17:21;;;;;;;16.17;6.20;;;;;;;5.63;70.37;101376.72;5057995;28;20051;-70
2021/04/23 02:20:08;;;;;;;14.52;6.60;;;;;;;5.63;70.74;101381.19;5057967;28;20078;-70
2021/04/23 02:22:54;;;;;;;11.55;6.43;;;;;;;5.64;70.24;101375.78;5073216;28;20093;-70
2021/04/23 02:25:39;;;;;;;17.48;6.55;;;;;;;5.65;70.48;101385.44;5076160;28;20404;-70
2021/04/23 02:28:23;;;;;;;14.82;6.13;;;;;;;5.61;70.51;101373.31;5061702;28;20429;-70
2021/04/23 02:31:17;;;;;;;15.95;5.50;;;;;;;5.63;70.55;101375.91;5061813;28;20097;-70
2021/04/23 02:34:04;;;;;;;19.77;6.20;;;;;;;5.60;70.30;101374.25;5061687;28;20063;-70
2021/04/23 02:36:48;;;;;;;18.75;6.20;;;;;;;5.62;70.29;101372.38;5075599;28;20063;-71
2021/04/23 02:39:32;;;;;;;;;;;;;;;5.60;70.47;101379.56;5076131;28;20127;-70
2021/04/23 02:42:17;;;;;;;13.52;5.18;;;;;;;5.62;70.60;101377.66;5061618;28;19970;-70
2021/04/23 02:45:02;;;;;;;14.35;5.50;;;;;;;5.63;69.92;101374.09;5075740;28;20047;-70
2021/04/23 02:47:47;;;;;;;15.02;5.72;;;;;;;5.61;70.53;101381.25;5075611;28;20051;-70
2021/04/23 02:50:33;;;;;;;13.10;5.60;;;;;;;5.61;70.34;101381.25;5075609;28;20046;-70
2021/04/23 02:53:17;;;;;;;11.40;5.60;;;;;;;5.61;70.30;101385.69;5089630;28;20079;-71
2021/04/23 02:56:02;;;;;;;13.70;5.72;;;;;;;5.61;70.26;101386.56;5061332;28;20576;-70
2021/04/23 02:58:46;;;;;;;14.98;5.88;;;;;;;5.59;70.53;101385.78;5061059;28;20075;-70
2021/04/23 03:01:44;;;;;;;13.75;5.63;;;;;;;5.59;70.65;101393.72;5061308;28;20052;-71
2021/04/23 03:04:28;;;;;;;15.82;5.57;;;;;;;5.63;70.20;101391.75;5061288;28;20132;-71
2021/04/23 03:07:12;;;;;;;12.85;5.93;;;;;;;5.60;70.29;101398.06;5060930;28;20127;-70
2021/04/23 03:09:56;;;;;;;19.50;5.78;;;;;;;5.64;70.07;101401.41;5060924;28;20441;-70
2021/04/23 03:12:40;;;;;;;17.20;5.65;;;;;;;5.58;70.31;101397.31;5061442;28;20094;-70
2021/04/23 03:15:25;;;;;;;13.05;5.75;;;;;;;5.56;70.39;101407.09;5075403;28;20402;-70
2021/04/23 03:18:11;;;;;;;14.95;5.32;;;;;;;5.51;70.68;101403.88;5061113;28;20051;-70
2021/04/23 03:20:57;;;;;;;13.75;5.47;;;;;;;5.49;70.69;101399.59;5061022;28;20405;-69
2021/04/23 03:23:42;;;;;;;16.88;5.68;;;;;;;5.43;70.74;101408.72;5060991;28;20048;-71
2021/04/23 03:26:27;;;;;;;15.02;6.10;;;;;;;5.39;71.01;101407.19;5091038;22;20090;-69
2021/04/23 03:29:15;;;;;;;13.52;5.82;;;;;;;5.37;71.22;101406.44;5095236;28;20046;-68
2021/04/23 03:31:59;;;;;;;14.45;5.72;;;;;;;5.36;71.08;101404.69;5080516;28;20074;-68
2021/04/23 03:34:43;;;;;;;12.38;5.80;;;;;;;5.30;71.65;101398.91;5079522;28;20039;-68
2021/04/23 03:37:27;;;;;;;21.23;6.05;;;;;;;5.26;72.13;101400.88;5080760;28;20092;-69
2021/04/23 03:40:11;;;;;;;;;;;;;;;5.27;72.64;101407.88;5080937;28;20105;-69
2021/04/23 03:42:56;;;;;;;12.05;5.30;;;;;;;5.23;73.00;101405.47;5080632;28;19962;-69
2021/04/23 03:45:40;;;;;;;17.88;6.18;;;;;;;5.14;73.12;101403.31;5080193;28;20153;-69
2021/04/23 03:48:25;;;;;;;10.35;5.63;;;;;;;5.05;73.56;101407.31;5080478;28;20050;-69
2021/04/23 03:51:10;;;;;;;14.55;6.38;;;;;;;4.94;74.47;101409.66;5080506;28;20047;-68
2021/04/23 03:53:54;;;;;;;16.73;6.53;;;;;;;4.84;75.08;101415.53;5080039;28;20051;-69
2021/04/23 03:56:38;;;;;;;13.80;6.45;;;;;;;4.75;76.36;101412.50;5080159;28;20097;-69
2021/04/23 03:59:23;;;;;;;12.27;6.82;;;;;;;4.71;76.74;101416.25;5080325;28;20097;-69
2021/04/23 04:02:08;;;;;;;12.25;6.38;;;;;;;4.68;77.05;101419.06;5080173;28;20090;-68
2021/04/23 04:04:52;;;;;;;20.08;7.32;;;;;;;4.65;77.46;101408.63;5080139;28;20523;-69
2021/04/23 04:07:36;;;;;;;13.93;6.47;;;;;;;4.66;77.26;101411.19;5079893;28;20421;-69
2021/04/23 04:10:20;;;;;;;11.65;6.50;;;;;;;4.63;77.48;101414.00;5080338;28;20051;-69
2021/04/23 04:13:05;;;;;;;16.73;6.15;;;;;;;4.64;77.47;101422.78;5079752;28;20071;-68
2021/04/23 04:15:49;;;;;;;18.10;6.18;;;;;;;4.65;76.97;101416.56;5079636;28;20086;-68
2021/04/23 04:18:33;;;;;;;13.68;6.45;;;;;;;4.67;76.62;101425.28;5079946;28;20554;-69
2021/04/23 04:21:17;;;;;;;16.63;7.90;;;;;;;4.67;76.46;101431.41;5079791;28;20050;-69
2021/04/23 04:24:01;;;;;;;13.95;6.80;;;;;;;4.68;76.04;101433.09;5079550;28;20135;-68
2021/04/23 04:26:45;;;;;;;12.82;6.65;;;;;;;4.67;75.88;101426.09;5079701;28;20085;-69
2021/04/23 04:29:29;;;;;;;16.60;7.72;;;;;;;4.68;76.05;101425.19;5079943;28;20094;-69
2021/04/23 04:32:14;;;;;;;19.92;7.50;;;;;;;4.69;76.06;101431.31;5079697;28;20098;-68
2021/04/23 04:34:58;;;;;;;13.77;6.05;;;;;;;4.71;75.50;101432.09;5079300;28;20078;-69
2021/04/23 04:37:42;;;;;;;14.80;6.85;;;;;;;4.70;75.73;101435.66;5079206;28;20105;-69
2021/04/23 04:40:28;;;;;;;18.52;7.05;;;;;;;4.69;75.77;101440.09;5079155;28;20090;-68
2021/04/23 04:43:13;;;;;;;15.68;7.13;;;;;;;4.71;75.60;101447.94;5079403;28;20526;-69
2021/04/23 04:45:57;;;;;;;14.35;6.40;;;;;;;4.76;75.26;101452.06;5078619;28;20118;-69
2021/04/23 04:48:41;;;;;;;22.13;8.18;;;;;;;4.77;75.51;101452.91;5079175;28;20050;-68
2021/04/23 04:51:26;;;;;;;19.48;7.55;;;;;;;4.84;75.37;101454.28;5079245;28;20055;-69
2021/04/23 04:54:10;;;;;;;23.48;7.50;;;;;;;4.89;75.22;101453.13;5093443;28;20051;-70
2021/04/23 04:56:54;;;;;;;17.52;7.13;;;;;;;4.89;75.03;101452.28;5078744;28;20119;-66
2021/04/23 04:59:37;;;;;;;19.00;8.23;;;;;;;4.94;75.07;101453.75;5093072;28;20419;-69
2021/04/23 05:02:21;;;;;;;18.30;7.00;;;;;;;4.97;74.60;101460.66;5079012;28;20054;-69
2021/04/23 05:05:07;;;;;;;19.30;8.25;;;;;;;4.96;75.06;101465.09;5079188;28;20093;-68
2021/04/23 05:07:52;;;;;;;19.27;7.20;;;;;;;5.02;75.26;101473.53;5092885;28;20476;-68
2021/04/23 05:10:37;;;;;;;21.23;7.00;;;;;;;5.04;74.92;101470.84;5078803;28;20470;-68
2021/04/23 05:13:21;;;;;;;23.60;7.95;;;;;;;5.09;74.99;101474.94;5078913;28;20128;-68
2021/04/23 05:16:05;;;;;;;15.82;6.70;;;;;;;5.17;74.84;101475.41;5078538;28;20619;-69
2021/04/23 05:18:49;;;;;;;20.48;8.02;;;;;;;5.24;74.58;101466.19;5078714;28;20512;-69
2021/04/23 05:21:33;;;;;;;17.48;7.80;;;;;;;5.31;74.83;101470.22;5078812;28;20051;-68
2021/04/23 05:24:17;;;;;;;13.85;7.15;;;;;;;5.41;74.33;101468.78;5078506;28;20043;-68
2021/04/23 05:27:01;;;;;;;24.13;7.50;;;;;;;5.51;74.32;101477.94;5092672;28;20055;-69
2021/04/23 05:29:45;;;;;;;24.48;8.95;;;;;;;5.62;74.42;101475.56;5092652;28;20072;-67
2021/04/23 05:32:29;;;;;;;19.08;8.68;;;;;;;5.70;74.72;101478.63;5064377;28;20043;-69
2021/04/23 05:35:15;;;;;;;18.73;8.40;;;;;;;5.84;74.95;101494.63;5078370;28;20047;-69
2021/04/23 05:38:00;;;;;;;26.65;9.07;;;;;;;5.98;74.26;101486.78;5078668;28;20127;-69
2021/04/23 05:40:46;;;;;;;23.05;9.63;;;;;;;6.11;73.89;101493.09;5078259;28;20054;-70
2021/04/23 05:43:30;;;;;;;23.30;8.98;;;;;;;6.22;73.78;101490.69;5078151;28;20166;-70
2021/04/23 05:46:17;;;;;;;18.77;8.55;;;;;;;6.28;73.36;101500.91;5078358;28;20127;-70
2021/04/23 05:49:02;;;;;;;21.13;8.93;;;;;;;6.41;73.02;101496.63;5078649;28;20109;-69
2021/04/23 05:51:46;;;;;;;24.80;9.98;;;;;;;6.54;72.37;101505.56;5078316;28;20114;-68
2021/04/23 05:54:31;;;;;;;17.92;9.02;;;;;;;6.61;71.91;101504.28;5078253;28;20109;-69
2021/04/23 05:57:15;;;;;;;26.67;9.05;;;;;;;6.69;71.54;101509.97;5077317;28;20128;-69
2021/04/23 05:59:59;;;;;;;17.02;9.50;;;;;;;6.79;71.36;101502.34;5078454;28;20055;-69
2021/04/23 06:02:43;;;;;;;24.35;10.52;;;;;;;6.89;70.34;101506.16;5078219;28;20047;-69
2021/04/23 06:05:28;;;;;;;24.00;11.43;;;;;;;6.98;70.27;101498.50;5092249;28;20098;-69
2021/04/23 06:08:13;;;;;;;23.27;11.48;;;;;;;7.11;69.33;101507.44;5092253;28;20113;-68
2021/04/23 06:10:57;;;;;;;;;;;;;;;7.14;69.79;101509.91;5078558;28;20097;-68
2021/04/23 06:13:41;;;;;;;20.10;10.33;;;;;;;7.23;69.54;101509.34;5077891;28;20423;-68
2021/04/23 06:16:25;;;;;;;19.30;9.70;;;;;;;7.33;70.03;101510.50;5092369;28;20089;-68
2021/04/23 06:19:10;;;;;;;25.40;9.85;;;;;;;7.41;69.47;101510.88;5078146;28;20043;-68
2021/04/23 06:21:53;;;;;;;21.55;9.20;;;;;;;7.53;69.96;101509.25;5078053;28;20092;-68
2021/04/23 06:24:38;;;;;;;21.80;8.82;;;;;;;7.57;68.50;101508.13;5077792;28;20507;-68
2021/04/23 06:27:23;;;;;;;19.08;9.60;;;;;;;7.62;69.23;101518.34;5077795;28;20051;-68
2021/04/23 06:30:13;;;;;;;22.17;9.20;;;;;;;7.73;68.13;101520.34;5078102;28;20451;-68
2021/04/23 06:33:00;;;;;;;15.98;8.90;;;;;;;7.79;67.85;101519.94;5078050;28;20051;-67
2021/04/23 06:35:46;;;;;;;20.08;8.57;;;;;;;7.89;68.10;101521.94;5077621;28;20051;-68
2021/04/23 06:38:31;;;;;;;19.98;9.27;;;;;;;7.96;67.85;101517.91;5078199;28;20546;-68
2021/04/23 06:41:15;;;;;;;18.75;8.73;;;;;;;8.11;68.05;101524.06;5077863;28;20063;-69
2021/04/23 06:43:59;;;;;;;17.02;8.15;;;;;;;8.20;66.67;101531.47;5077895;28;20110;-69
2021/04/23 06:46:43;;;;;;;15.85;8.45;;;;;;;8.30;66.73;101541.41;5077659;28;20097;-69
2021/04/23 06:49:27;;;;;;;17.38;8.95;;;;;;;8.39;66.29;101537.31;5077507;28;20050;-69
2021/04/23 06:52:11;;;;;;;18.00;9.00;;;;;;;8.50;66.03;101540.09;5077699;28;20409;-69
2021/04/23 06:54:56;;;;;;;23.55;8.85;;;;;;;8.60;64.75;101547.38;5078025;28;20043;-69
2021/04/23 06:57:41;;;;;;;19.90;8.52;;;;;;;8.70;64.96;101547.63;5077466;28;20527;-69
2021/04/23 07:00:28;;;;;;;16.30;8.40;;;;;;;8.78;63.88;101550.63;5077714;28;20090;-69
2021/04/23 07:03:12;;;;;;;16.60;8.40;;;;;;;8.86;62.71;101543.00;5077411;28;20047;-69
2021/04/23 07:05:58;;;;;;;19.77;8.30;;;;;;;8.99;62.22;101543.88;5077608;28;20051;-69
2021/04/23 07:08:42;;;;;;;18.92;7.63;;;;;;;9.07;62.30;101537.06;5079197;28;20051;-68
2021/04/23 07:11:26;;;;;;;17.40;8.43;;;;;;;9.16;61.78;101530.28;5081040;28;20058;-69
2021/04/23 07:14:10;;;;;;;18.83;8.60;;;;;;;9.31;60.51;101537.19;5081134;28;20071;-68
2021/04/23 07:16:54;;;;;;;24.30;8.75;;;;;;;9.39;59.49;101538.38;5080903;28;20201;-67
2021/04/23 07:19:39;;;;;;;15.38;7.63;;;;;;;9.49;59.54;101543.94;5081038;28;20077;-69
2021/04/23 07:22:22;;;;;;;16.52;8.07;;;;;;;9.63;58.17;101535.81;5081332;28;20404;-68
2021/04/23 07:25:07;;;;;;;19.33;8.05;;;;;;;9.73;56.84;101553.72;5081042;28;20436;-69
2021/04/23 07:27:52;;;;;;;21.45;8.15;;;;;;;9.89;56.54;101542.81;5080573;28;20051;-69
2021/04/23 07:30:37;;;;;;;25.83;7.43;;;;;;;9.97;56.14;101551.13;5080882;28;20135;-68
2021/04/23 07:33:21;;;;;;;18.25;8.15;;;;;;;10.09;56.76;101548.44;5080730;28;20074;-68
2021/04/23 07:36:06;;;;;;;14.23;7.30;;;;;;;10.23;56.07;101548.31;5080453;28;20512;-69
2021/04/23 07:38:50;;;;;;;21.25;8.10;;;;;;;10.39;55.76;101551.56;5080423;28;20051;-68
2021/04/23 07:41:33;;;;;;;21.05;7.20;;;;;;;10.44;54.69;101549.41;5080383;28;20483;-68
2021/04/23 07:44:17;;;;;;;19.08;7.07;;;;;;;10.50;55.30;101541.81;5080683;28;20458;-68
2021/04/23 07:47:01;;;;;;;14.98;6.75;;;;;;;10.57;53.33;101537.72;5080492;28;20042;-68
2021/04/23 07:49:47;;;;;;;14.75;7.43;;;;;;;10.71;54.43;101545.56;5080769;28;20096;-69
2021/04/23 07:52:31;;;;;;;22.08;7.30;;;;;;;10.80;53.65;101549.34;5080814;28;20090;-67
2021/04/23 07:55:15;;;;;;;14.27;7.05;;;;;;;10.91;52.73;101552.06;5080408;28;20043;-69
2021/04/23 07:57:59;;;;;;;;;;;;;;;10.95;51.88;101551.69;5080757;28;20503;-69
2021/04/23 08:00:43;;;;;;;21.65;6.60;;;;;;;11.04;52.56;101543.00;5080359;28;19926;-69
2021/04/23 08:03:31;;;;;;;14.80;6.47;;;;;;;11.12;52.13;101551.28;5080195;28;20086;-70
2021/04/23 08:06:16;;;;;;;18.38;7.45;;;;;;;11.25;51.74;101545.88;5079976;28;20051;-69
2021/04/23 08:09:00;;;;;;;11.60;6.55;;;;;;;11.33;52.39;101546.97;5080143;28;20047;-69
2021/04/23 08:11:44;;;;;;;16.23;6.60;;;;;;;11.40;51.09;101542.00;5080400;28;20055;-68
2021/04/23 08:14:28;;;;;;;13.80;7.18;;;;;;;11.47;50.12;101541.41;5079696;28;20497;-69
2021/04/23 08:17:12;;;;;;;15.43;6.80;;;;;;;11.53;50.67;101540.94;5079875;28;20409;-69
2021/04/23 08:19:56;;;;;;;16.42;6.72;;;;;;;11.68;50.58;101541.59;5079717;28;20054;-69
2021/04/23 08:22:40;;;;;;;17.23;6.95;;;;;;;11.82;49.83;101536.88;5079854;28;20085;-69
2021/04/23 08:25:24;;;;;;;12.88;6.68;;;;;;;11.91;49.06;101536.13;5079416;28;20121;-69
2021/04/23 08:28:09;;;;;;;14.55;6.60;;;;;;;12.02;48.99;101538.81;5079366;28;20050;-69
2021/04/23 08:30:53;;;;;;;22.05;7.25;;;;;;;12.15;47.58;101534.16;5079337;28;20043;-69
2021/04/23 08:33:37;;;;;;;13.00;6.88;;;;;;;12.28;48.25;101526.84;5079469;28;20047;-69
2021/04/23 08:36:21;;;;;;;11.05;6.53;;;;;;;12.32;48.00;101528.31;5079476;28;20046;-68
2021/04/23 08:39:09;;;;;;;17.50;6.72;;;;;;;12.42;47.09;101528.38;5079561;28;20055;-69
2021/04/23 08:41:54;;;;;;;14.27;5.97;;;;;;;12.50;46.02;101533.97;5079598;28;20051;-69
2021/04/23 08:44:38;;;;;;;16.67;6.63;;;;;;;12.62;46.46;101525.75;5079835;28;20043;-69
2021/04/23 08:47:22;;;;;;;13.65;6.32;;;;;;;12.74;46.50;101524.75;5079039;28;20047;-68
2021/04/23 08:50:09;;;;;;;13.65;6.50;;;;;;;12.93;44.42;101527.59;5079062;28;20522;-69
2021/04/23 08:52:53;;;;;;;13.50;6.70;;;;;;;13.09;44.99;101530.69;5079157;28;20051;-69
2021/04/23 08:55:38;;;;;;;12.10;6.13;;;;;;;13.06;43.56;101530.97;5079311;28;20055;-69
2021/04/23 08:58:23;;;;;;;16.45;7.30;;;;;;;13.19;43.87;101523.59;5078976;28;20050;-69
2021/04/23 09:01:07;;;;;;;12.82;6.45;;;;;;;13.18;43.87;101511.19;5079140;28;20050;-69
2021/04/23 09:03:50;;;;;;;14.07;6.57;;;;;;;13.34;44.13;101519.59;5078904;28;20078;-69
2021/04/23 09:06:34;;;;;;;18.48;7.15;;;;;;;13.56;42.87;101522.13;5079170;28;20411;-69
2021/04/23 09:09:18;;;;;;;19.15;7.30;;;;;;;13.72;42.47;101517.13;5078917;28;20055;-69
2021/04/23 09:12:17;;;;;;;12.73;6.90;;;;;;;13.81;41.73;101521.66;5078997;28;20047;-69
2021/04/23 09:15:02;;;;;;;17.63;6.82;;;;;;;13.90;40.62;101518.19;5079618;28;20492;-69
2021/04/23 09:18:15;;;;;;;16.75;7.80;;;;;;;14.07;40.76;101517.56;5079569;28;20610;-69
2021/04/23 09:21:03;;;;;;;19.38;7.57;;;;;;;14.27;40.99;101516.66;5080103;28;20401;-68
2021/04/23 09:23:49;;;;;;;16.85;7.28;;;;;;;14.45;40.36;101521.19;5078599;28;20085;-69
2021/04/23 09:26:37;;;;;;;12.82;6.80;;;;;;;14.58;41.08;101518.25;5092574;28;20454;-69
2021/04/23 09:29:29;;;;;;;13.63;7.32;;;;;;;14.81;40.71;101515.13;5078860;28;20055;-69
2021/04/23 09:32:14;;;;;;;16.65;7.95;;;;;;;14.81;38.47;101515.13;5078595;28;20081;-68
2021/04/23 09:35:18;;;;;;;15.55;7.53;;;;;;;15.14;38.20;101519.22;5078330;28;20046;-69
2021/04/23 09:38:02;;;;;;;18.60;7.68;;;;;;;15.45;38.34;101518.06;5078447;28;20114;-69
2021/04/23 09:40:47;;;;;;;14.85;7.05;;;;;;;15.40;37.66;101517.66;5078756;28;20055;-69
2021/04/23 09:43:37;;;;;;;16.38;7.28;;;;;;;15.84;36.83;101513.25;5078406;28;20047;-69
2021/04/23 09:46:35;;;;;;;15.75;6.88;;;;;;;16.29;36.49;101514.16;5078133;28;20051;-69
2021/04/23 09:49:20;;;;;;;14.20;7.15;;;;;;;16.68;35.70;101514.78;5078413;28;20051;-69
2021/04/23 09:52:06;;;;;;;11.05;6.95;;;;;;;17.15;34.52;101508.13;5078546;28;20078;-69
2021/04/23 09:54:53;;;;;;;15.80;7.30;;;;;;;17.77;33.96;101500.66;5078341;28;20507;-69
2021/04/23 09:57:37;;;;;;;16.40;7.45;;;;;;;18.52;32.47;101509.59;5078398;28;20081;-68
2021/04/23 10:00:26;;;;;;;15.38;7.65;;;;;;;19.34;30.67;101512.19;5078263;28;20093;-68
2021/04/23 10:03:11;;;;;;;10.93;7.00;;;;;;;20.54;28.70;101509.09;5078492;28;20415;-68
2021/04/23 10:05:56;;;;;;;15.35;7.35;;;;;;;22.36;26.13;101502.09;5078167;28;20047;-69
2021/04/23 10:08:40;;;;;;;12.27;7.22;;;;;;;24.48;24.02;101490.44;5078382;28;20458;-68
2021/04/23 10:11:42;;;;;;;22.67;7.68;;;;;;;25.56;21.52;101486.44;5078188;28;20078;-69
2021/04/23 10:14:26;;;;;;;15.25;7.32;;;;;;;25.56;21.52;101486.44;5078104;28;20094;-69
2021/04/23 10:17:20;;;;;;;12.98;7.60;;;;;;;28.56;19.18;101485.97;5077772;28;20562;-69
2021/04/23 10:20:06;;;;;;;13.15;7.68;;;;;;;29.95;17.63;101466.72;5078016;28;20132;-69
2021/04/23 10:22:52;;;;;;;15.00;7.45;;;;;;;30.66;16.78;101480.91;5078272;28;20097;-68
2021/04/23 10:25:37;;;;;;;16.77;7.47;;;;;;;31.82;16.24;101476.31;5078098;28;20511;-70
2021/04/23 10:28:23;;;;;;;11.20;7.10;;;;;;;32.31;15.49;101478.97;5077692;28;20454;-70
2021/04/23 10:31:07;;;;;;;13.40;7.32;;;;;;;32.83;15.17;101476.50;5078217;28;20101;-69
2021/04/23 10:33:51;;;;;;;10.80;7.40;;;;;;;32.84;14.01;101478.19;5077576;28;20528;-69
2021/04/23 10:36:37;;;;;;;10.77;6.72;;;;;;;32.95;13.63;101458.69;5077726;28;20051;-68
2021/04/23 10:39:22;;;;;;;16.70;7.10;;;;;;;32.39;14.18;101467.44;5077677;28;20051;-69
2021/04/23 10:42:46;;;;;;;13.70;7.30;;;;;;;33.06;13.58;101475.06;5077638;28;20054;-68
2021/04/23 10:45:41;;;;;;;10.63;7.10;;;;;;;33.94;13.07;101466.13;5095697;28;20097;-69
2021/04/23 10:48:31;;;;;;;12.20;7.43;;;;;;;33.58;12.67;101462.28;5082071;28;20125;-69
2021/04/23 10:51:18;;;;;;;12.50;7.82;;;;;;;33.50;13.03;101460.00;5081827;28;20144;-70
2021/04/23 10:54:15;;;;;;;13.80;7.40;;;;;;;34.57;12.79;101461.09;5095796;28;20072;-70
2021/04/23 10:57:04;;;;;;;12.93;7.32;;;;;;;34.72;12.47;101466.72;5081711;28;20138;-69
2021/04/23 10:59:48;;;;;;;13.18;7.30;;;;;;;34.46;12.41;101453.06;5081981;28;20515;-69
2021/04/23 11:02:32;;;;;;;11.15;6.78;;;;;;;34.45;12.84;101457.75;5081528;28;20055;-69
2021/04/23 11:05:15;;;;;;;11.48;6.43;;;;;;;35.01;11.35;101450.41;5081253;28;20131;-69
2021/04/23 11:08:10;;;;;;;10.15;6.68;;;;;;;34.64;11.72;101455.31;5080816;28;20093;-70
2021/04/23 11:11:00;;;;;;;12.10;6.82;;;;;;;34.65;11.60;101445.88;5081264;28;20443;-69
2021/04/23 11:13:45;;;;;;;8.15;6.18;;;;;;;34.58;11.50;101445.34;5095474;28;20078;-69
2021/04/23 11:16:31;;;;;;;10.63;6.13;;;;;;;34.57;11.39;101443.69;5080731;28;20420;-68
2021/04/23 11:19:19;;;;;;;10.02;6.90;;;;;;;34.48;11.06;101439.78;5081424;28;20101;-68
2021/04/23 11:22:12;;;;;;;11.05;6.25;;;;;;;33.45;11.70;101442.53;5095610;28;20059;-69
2021/04/23 11:24:59;;;;;;;11.45;7.15;;;;;;;34.58;11.67;101446.16;5081046;28;20243;-69
2021/04/23 11:28:02;;;;;;;12.68;7.75;;;;;;;33.40;11.64;101437.81;5094742;28;20109;-69
2021/04/23 11:31:06;;;;;;;15.07;6.73;;;;;;;34.64;11.43;101434.00;5095516;28;20054;-69
2021/04/23 11:33:50;;;;;;;;;;;;;;;35.34;11.79;101430.47;5095583;28;20276;-70
2021/04/23 11:36:41;;;;;;;12.82;6.32;;;;;;;34.63;11.06;101437.03;5080666;28;20002;-69
2021/04/23 11:39:34;;;;;;;9.93;6.47;;;;;;;34.25;11.21;101429.19;5081739;28;20409;-70
2021/04/23 11:42:20;;;;;;;12.07;5.70;;;;;;;35.13;11.13;101426.00;5080673;28;20082;-69
2021/04/23 11:45:13;;;;;;;9.85;6.13;;;;;;;35.24;10.52;101422.16;5080662;28;20446;-70
2021/04/23 11:47:58;;;;;;;10.30;6.05;;;;;;;36.05;11.45;101413.38;5094503;28;20133;-70
2021/04/23 11:50:45;;;;;;;9.77;7.03;;;;;;;36.62;10.53;101416.41;5094525;28;20050;-70
2021/04/23 11:53:30;;;;;;;8.93;6.30;;;;;;;37.31;10.62;101411.41;5080558;28;20097;-70
2021/04/23 11:56:16;;;;;;;10.60;6.53;;;;;;;35.72;10.41;101408.47;5079299;28;20047;-70
2021/04/23 11:59:05;;;;;;;9.88;5.75;;;;;;;35.74;10.38;101410.97;5090478;22;20067;-71
2021/04/23 12:01:49;;;;;;;11.93;7.00;;;;;;;35.41;10.19;101406.88;5060200;28;20050;-70
2021/04/23 12:04:45;;;;;;;10.57;5.22;;;;;;;36.35;9.85;101397.38;5059981;28;20096;-70
2021/04/23 12:07:43;;;;;;;12.65;6.28;;;;;;;36.10;9.31;101398.63;5074441;28;20123;-71
2021/04/23 12:10:32;;;;;;;9.90;5.78;;;;;;;36.49;9.13;101397.59;5053833;28;20212;-70
2021/04/23 12:13:17;;;;;;;12.05;6.03;;;;;;;36.33;9.61;101399.63;5039978;28;20190;-71
2021/04/23 12:16:12;;;;;;;8.57;7.22;;;;;;;35.99;9.36;101391.47;5053916;28;20544;-70
2021/04/23 12:18:57;;;;;;;10.68;6.18;;;;;;;36.27;9.56;101394.41;5039710;28;20043;-70
2021/04/23 12:21:41;;;;;;;7.40;5.47;;;;;;;36.01;9.56;101387.28;5039927;28;20532;-70
2021/04/23 12:24:25;;;;;;;7.10;5.28;;;;;;;34.21;9.26;101392.91;5039828;28;20051;-70
2021/04/23 12:27:09;;;;;;;8.75;6.10;;;;;;;35.41;10.04;101387.44;5039690;28;20126;-70
2021/04/23 12:29:53;;;;;;;6.68;5.20;;;;;;;35.86;9.63;101380.97;5039437;28;20117;-70
2021/04/23 12:32:52;;;;;;;15.45;7.05;;;;;;;35.93;9.71;101381.50;5053337;28;20095;-71
2021/04/23 12:35:38;;;;;;;13.40;5.97;;;;;;;35.87;10.38;101377.06;5039041;28;20063;-70
2021/04/23 12:38:50;;;;;;;10.20;5.63;;;;;;;36.09;9.99;101383.91;5053018;28;20063;-70
2021/04/23 12:41:37;;;;;;;9.75;6.32;;;;;;;35.90;9.53;101371.78;5039105;28;20121;-70
2021/04/23 12:44:29;;;;;;;9.90;6.05;;;;;;;36.17;9.30;101374.19;5053533;28;20516;-71
2021/04/23 12:47:13;;;;;;;5.47;4.32;;;;;;;34.02;8.88;101377.88;5053631;28;20524;-71
2021/04/23 12:49:58;;;;;;;9.35;4.70;;;;;;;33.20;9.23;101376.81;5039299;28;20132;-70
2021/04/23 12:52:44;;;;;;;8.55;4.80;;;;;;;33.21;10.28;101374.88;5039063;28;20054;-70